Terminal Aerodrome Forecast
Issued by NWS

Home | Current Version | Previous Version | Text Only | Print | Product List | Glossary On
Versions: 1 2 3 4 5 6 7 8 9 10 11 12 13 14 15 16 17
000
FTUS43 KGRB 300500
TAFAUW
TAF
KAUW 300520Z 3006/3106 28007KT P6SM SCT060
     FM301500 27009G16KT P6SM BKN250
     FM302200 22007KT P6SM SCT050 BKN100
     FM310100 07003KT P6SM BKN050
      TEMPO 3101/3105 4SM -RASN=

USA.gov is the U.S. government's official web portal to all federal, state and local government web resources and services.